createdAt,value
2018-12-10T00:01:11.648Z,0.60
2018-12-10T00:03:39.214Z,0.63
2018-12-10T00:06:06.811Z,0.60
2018-12-10T00:08:34.444Z,0.50
2018-12-10T00:11:02.026Z,0.70
2018-12-10T00:13:29.629Z,0.57
2018-12-10T00:15:57.488Z,0.67
2018-12-10T00:18:25.120Z,0.50
2018-12-10T00:20:52.722Z,0.50
2018-12-10T00:23:20.398Z,0.93
2018-12-10T00:25:48.410Z,0.83
2018-12-10T00:28:16.231Z,0.77
2018-12-10T00:30:43.859Z,0.60
2018-12-10T00:33:11.440Z,1.00
2018-12-10T00:35:39.031Z,0.70
2018-12-10T00:38:06.742Z,0.40
2018-12-10T00:40:34.484Z,0.70
2018-12-10T00:43:02.112Z,0.70
2018-12-10T00:45:29.763Z,0.50
2018-12-10T00:47:58.282Z,0.80
2018-12-10T00:50:25.915Z,0.60
2018-12-10T00:52:53.586Z,0.77
2018-12-10T00:55:21.504Z,0.83
2018-12-10T00:57:49.465Z,0.70
2018-12-10T01:00:17.354Z,0.60
2018-12-10T01:02:45.141Z,1.00
2018-12-10T01:05:12.917Z,0.70
2018-12-10T01:07:40.496Z,0.80
2018-12-10T01:10:08.306Z,0.53
2018-12-10T01:12:35.881Z,0.60
2018-12-10T01:15:04.501Z,0.93
2018-12-10T01:17:32.088Z,0.60
2018-12-10T01:19:59.678Z,0.60
2018-12-10T01:22:27.314Z,0.80
2018-12-10T01:24:54.956Z,0.90
2018-12-10T01:27:22.640Z,0.87
2018-12-10T01:29:50.242Z,0.90
2018-12-10T01:32:18.000Z,0.70
2018-12-10T01:34:45.583Z,0.77
2018-12-10T01:37:13.205Z,0.60
2018-12-10T01:39:41.140Z,0.70
2018-12-10T01:42:08.803Z,0.47
2018-12-10T01:44:36.408Z,0.50
2018-12-10T01:47:04.005Z,0.77
2018-12-10T01:49:31.699Z,0.60
2018-12-10T01:51:59.362Z,0.50
2018-12-10T01:54:27.018Z,0.70
2018-12-10T01:56:54.915Z,0.60
2018-12-10T01:59:22.570Z,0.60
2018-12-10T02:01:50.144Z,0.57
2018-12-10T02:04:18.499Z,0.80
2018-12-10T02:06:46.085Z,0.70
2018-12-10T02:09:13.676Z,0.90
2018-12-10T02:11:41.265Z,0.73
2018-12-10T02:14:08.882Z,0.80
2018-12-10T02:16:36.531Z,0.70
2018-12-10T02:19:04.170Z,0.63
2018-12-10T02:21:31.747Z,0.60
2018-12-10T02:23:59.430Z,0.67
2018-12-10T02:26:27.008Z,0.70
2018-12-10T02:29:00.206Z,0.70
2018-12-10T02:31:27.802Z,0.60
2018-12-10T02:33:55.380Z,0.70
2018-12-10T02:36:23.199Z,0.70
2018-12-10T02:38:50.822Z,0.70
2018-12-10T02:41:18.692Z,0.80
2018-12-10T02:43:46.332Z,0.60
2018-12-10T02:46:13.932Z,0.67
2018-12-10T02:48:41.529Z,0.67
2018-12-10T02:51:09.175Z,0.90
2018-12-10T02:53:36.775Z,0.70
2018-12-10T02:56:04.385Z,0.70
2018-12-10T02:58:31.995Z,0.90
2018-12-10T03:00:59.595Z,0.57
2018-12-10T03:03:27.223Z,1.03
2018-12-10T03:05:54.816Z,0.83
2018-12-10T03:08:22.429Z,0.70
2018-12-10T03:10:50.013Z,0.90
2018-12-10T03:13:17.724Z,0.90
2018-12-10T03:15:45.309Z,0.70
2018-12-10T03:18:12.903Z,1.23
2018-12-10T03:20:40.507Z,0.77
2018-12-10T03:23:08.097Z,1.00
2018-12-10T03:25:36.653Z,0.90
2018-12-10T03:28:04.309Z,0.87
2018-12-10T03:30:31.920Z,0.83
2018-12-10T03:32:59.695Z,0.67
2018-12-10T03:35:27.268Z,0.93
2018-12-10T03:37:54.897Z,0.93
2018-12-10T03:40:22.514Z,1.00
2018-12-10T03:42:50.320Z,0.73
2018-12-10T03:45:18.292Z,0.80
2018-12-10T03:47:45.943Z,0.60
2018-12-10T03:50:13.533Z,0.70
2018-12-10T03:52:41.094Z,0.83
2018-12-10T03:55:08.692Z,0.80
2018-12-10T03:57:36.524Z,0.90
2018-12-10T04:00:04.360Z,0.90
2018-12-10T04:02:31.978Z,0.93
2018-12-10T04:04:59.760Z,0.80
2018-12-10T04:07:27.345Z,1.10
2018-12-10T04:09:54.951Z,0.63
2018-12-10T04:12:22.638Z,1.03
2018-12-10T04:14:50.256Z,0.70
2018-12-10T04:17:18.165Z,0.67
2018-12-10T04:19:45.802Z,0.80
2018-12-10T04:22:14.108Z,0.80
2018-12-10T04:24:41.726Z,0.73
2018-12-10T04:27:09.306Z,0.60
2018-12-10T04:29:36.932Z,0.83
2018-12-10T04:32:04.512Z,0.90
2018-12-10T04:34:32.103Z,0.90
2018-12-10T04:37:01.386Z,1.00
2018-12-10T04:39:29.027Z,0.87
2018-12-10T04:41:56.618Z,0.90
2018-12-10T04:44:24.432Z,0.70
2018-12-10T04:46:52.068Z,1.00
2018-12-10T04:49:19.707Z,0.63
2018-12-10T04:51:47.393Z,0.70
2018-12-10T04:54:15.074Z,1.20
2018-12-10T04:56:42.791Z,0.93
2018-12-10T04:59:10.393Z,0.93
2018-12-10T05:01:37.980Z,1.20
2018-12-10T05:04:05.586Z,1.03
2018-12-10T05:06:33.201Z,0.80
2018-12-10T05:09:01.728Z,1.07
2018-12-10T05:11:29.347Z,0.73
2018-12-10T05:13:56.918Z,0.80
2018-12-10T05:16:24.490Z,0.73
2018-12-10T05:18:52.074Z,1.00
2018-12-10T05:21:19.667Z,0.87
2018-12-10T05:23:47.405Z,1.30
2018-12-10T05:26:15.009Z,0.90
2018-12-10T05:28:42.564Z,0.90
2018-12-10T05:31:10.140Z,0.60
2018-12-10T05:33:37.716Z,0.70
2018-12-10T05:36:05.320Z,1.20
2018-12-10T05:38:32.894Z,0.97
2018-12-10T05:41:00.588Z,0.90
2018-12-10T05:43:28.184Z,0.87
2018-12-10T05:45:56.059Z,1.03
2018-12-10T05:48:23.647Z,1.03
2018-12-10T05:50:51.222Z,0.77
2018-12-10T05:53:19.053Z,0.87
2018-12-10T05:55:46.612Z,0.93
2018-12-10T05:58:14.219Z,0.90
2018-12-10T06:00:41.804Z,0.97
2018-12-10T06:03:09.390Z,1.10
2018-12-10T06:05:36.975Z,1.00
2018-12-10T06:08:04.584Z,0.70
2018-12-10T06:10:32.154Z,1.00
2018-12-10T06:12:59.808Z,0.70
2018-12-10T06:15:27.509Z,0.77
2018-12-10T06:17:55.106Z,0.70
2018-12-10T06:20:22.687Z,0.90
2018-12-10T06:22:50.289Z,0.80
2018-12-10T06:25:18.883Z,1.03
2018-12-10T06:27:46.521Z,0.90
2018-12-10T06:30:14.089Z,0.93
2018-12-10T06:32:41.675Z,0.60
2018-12-10T06:35:09.287Z,1.03
2018-12-10T06:37:37.758Z,0.87
2018-12-10T06:40:05.763Z,0.80
2018-12-10T06:42:33.348Z,0.80
2018-12-10T06:45:01.094Z,0.90
2018-12-10T06:47:28.823Z,0.83
2018-12-10T06:49:56.431Z,0.80
2018-12-10T06:52:24.077Z,0.70
2018-12-10T06:54:51.686Z,1.20
2018-12-10T06:57:19.444Z,0.87
2018-12-10T06:59:47.029Z,0.77
2018-12-10T07:02:14.619Z,0.90
2018-12-10T07:04:42.195Z,0.70
2018-12-10T07:07:09.785Z,0.90
2018-12-10T07:09:37.507Z,0.90
2018-12-10T07:12:05.220Z,0.73
2018-12-10T07:14:32.845Z,0.67
2018-12-10T07:17:00.683Z,1.10
2018-12-10T07:19:28.326Z,0.63
2018-12-10T07:21:56.117Z,1.00
2018-12-10T07:24:23.727Z,1.07
2018-12-10T07:26:51.300Z,1.00
2018-12-10T07:29:19.979Z,0.80
2018-12-10T07:31:47.760Z,0.70
2018-12-10T07:34:15.317Z,0.80
2018-12-10T07:36:42.890Z,1.23
2018-12-10T07:39:10.477Z,1.20
2018-12-10T07:41:38.115Z,1.10
2018-12-10T07:44:05.699Z,0.80
2018-12-10T07:46:33.302Z,1.07
2018-12-10T07:49:01.408Z,1.00
2018-12-10T07:51:29.060Z,0.90
2018-12-10T07:53:56.636Z,0.90
2018-12-10T07:56:28.982Z,0.60
2018-12-10T07:58:53.839Z,1.03
2018-12-10T08:01:21.397Z,0.80
2018-12-10T08:03:49.111Z,0.50
2018-12-10T08:06:16.673Z,1.00
2018-12-10T08:08:44.262Z,0.80
2018-12-10T08:11:11.848Z,1.20
2018-12-10T08:13:39.415Z,1.20
2018-12-10T08:16:06.996Z,1.20
2018-12-10T08:18:34.815Z,0.77
2018-12-10T08:21:02.750Z,0.70
2018-12-10T08:23:30.678Z,0.77
2018-12-10T08:25:58.433Z,0.97
2018-12-10T08:28:26.279Z,1.00
2018-12-10T08:30:53.902Z,0.90
2018-12-10T08:33:21.508Z,0.77
2018-12-10T08:35:49.102Z,0.77
2018-12-10T08:38:16.688Z,0.73
2018-12-10T08:40:44.263Z,1.17
2018-12-10T08:43:11.872Z,0.97
2018-12-10T08:45:39.499Z,0.90
2018-12-10T08:48:07.085Z,0.90
2018-12-10T08:50:34.861Z,1.10
2018-12-10T08:53:02.778Z,1.00
2018-12-10T08:55:30.359Z,0.97
2018-12-10T08:57:57.941Z,0.77
2018-12-10T09:00:25.660Z,0.60
2018-12-10T09:02:53.246Z,0.57
2018-12-10T09:05:20.815Z,0.90
2018-12-10T09:07:48.852Z,0.57
2018-12-10T09:10:16.766Z,0.70
2018-12-10T09:12:47.174Z,0.73
2018-12-10T09:15:13.969Z,0.90
2018-12-10T09:17:41.604Z,1.00
2018-12-10T09:20:09.210Z,0.70
2018-12-10T09:22:36.792Z,0.70
2018-12-10T09:25:05.411Z,0.90
2018-12-10T09:27:33.019Z,0.80
2018-12-10T09:30:00.629Z,1.30
2018-12-10T09:32:28.208Z,1.00
2018-12-10T09:34:55.802Z,1.10
2018-12-10T09:37:23.401Z,1.17
2018-12-10T09:39:51.027Z,0.93
2018-12-10T09:42:18.905Z,1.07
2018-12-10T09:44:46.527Z,0.90
2018-12-10T09:47:14.097Z,0.67
2018-12-10T09:49:41.688Z,0.80
2018-12-10T09:52:09.468Z,1.00
2018-12-10T09:54:37.087Z,0.80
2018-12-10T09:57:04.987Z,1.10
2018-12-10T09:59:32.568Z,0.90
2018-12-10T10:02:00.147Z,1.07
2018-12-10T10:04:27.785Z,1.27
2018-12-10T10:06:55.373Z,1.20
2018-12-10T10:09:22.984Z,0.83
2018-12-10T10:11:50.818Z,0.90
2018-12-10T10:14:18.438Z,0.80
2018-12-10T10:16:46.030Z,0.90
2018-12-10T10:19:13.635Z,1.10
2018-12-10T10:21:41.211Z,1.10
2018-12-10T10:24:08.776Z,0.50
2018-12-10T10:26:36.379Z,0.57
2018-12-10T10:29:04.208Z,1.20
2018-12-10T10:31:31.795Z,0.80
2018-12-10T10:33:59.393Z,0.70
2018-12-10T10:36:26.979Z,0.90
2018-12-10T10:38:54.560Z,0.90
2018-12-10T10:41:22.130Z,0.97
2018-12-10T10:43:49.725Z,0.70
2018-12-10T10:46:18.248Z,1.10
2018-12-10T10:48:45.879Z,1.00
2018-12-10T10:51:13.463Z,0.77
2018-12-10T10:53:41.149Z,0.90
2018-12-10T10:56:08.919Z,0.90
2018-12-10T10:58:36.548Z,1.00
2018-12-10T11:01:09.942Z,0.70
2018-12-10T11:03:39.047Z,0.70
2018-12-10T11:06:07.068Z,0.73
2018-12-10T11:08:34.777Z,0.70
2018-12-10T11:11:02.549Z,0.70
2018-12-10T11:13:30.223Z,1.00
2018-12-10T11:15:57.817Z,0.87
2018-12-10T11:18:25.427Z,1.10
2018-12-10T11:20:53.053Z,0.87
2018-12-10T11:23:20.614Z,1.00
2018-12-10T11:25:48.468Z,0.87
2018-12-10T11:28:16.054Z,0.80
2018-12-10T11:30:43.767Z,0.90
2018-12-10T11:33:11.390Z,0.83
2018-12-10T11:35:38.976Z,0.80
2018-12-10T11:38:06.568Z,1.13
2018-12-10T11:40:34.189Z,1.00
2018-12-10T11:43:01.770Z,0.80
2018-12-10T11:45:29.362Z,0.90
2018-12-10T11:47:56.983Z,0.70
2018-12-10T11:50:24.582Z,0.90
2018-12-10T11:52:52.204Z,0.80
2018-12-10T11:55:20.171Z,0.83
2018-12-10T11:57:48.124Z,0.73
2018-12-10T12:00:15.873Z,0.90
2018-12-10T12:02:43.522Z,0.97
2018-12-10T12:05:11.144Z,0.77
2018-12-10T12:07:38.720Z,0.70
2018-12-10T12:10:06.837Z,0.97
2018-12-10T12:12:34.418Z,0.77
2018-12-10T12:15:02.053Z,0.93
2018-12-10T12:17:29.608Z,0.80
2018-12-10T12:19:57.190Z,0.63
2018-12-10T12:22:24.796Z,0.93
2018-12-10T12:24:52.597Z,1.07
2018-12-10T12:27:20.188Z,0.63
2018-12-10T12:29:48.530Z,0.90
2018-12-10T12:32:16.111Z,0.80
2018-12-10T12:34:44.566Z,0.90
2018-12-10T12:37:12.243Z,0.70
2018-12-10T12:39:39.917Z,1.17
2018-12-10T12:42:07.579Z,0.87
2018-12-10T12:44:35.242Z,0.90
2018-12-10T12:47:02.866Z,0.70
2018-12-10T12:49:30.570Z,0.80
2018-12-10T12:51:58.166Z,0.90
2018-12-10T12:54:25.747Z,1.10
2018-12-10T12:56:53.560Z,0.97
2018-12-10T12:59:21.199Z,0.80
2018-12-10T13:01:49.509Z,0.70
2018-12-10T13:04:17.430Z,0.73
2018-12-10T13:06:45.050Z,0.80
2018-12-10T13:09:12.655Z,0.83
2018-12-10T13:11:40.269Z,0.90
2018-12-10T13:14:07.852Z,0.70
2018-12-10T13:16:35.433Z,0.90
2018-12-10T13:19:03.016Z,0.80
2018-12-10T13:21:30.759Z,0.90
2018-12-10T13:23:58.349Z,0.77
2018-12-10T13:26:25.966Z,0.90
2018-12-10T13:28:53.544Z,1.00
2018-12-10T13:31:21.126Z,0.90
2018-12-10T13:33:48.913Z,0.90
2018-12-10T13:36:16.550Z,0.80
2018-12-10T13:38:44.114Z,0.80
2018-12-10T13:41:11.700Z,1.00
2018-12-10T13:43:39.299Z,1.30
2018-12-10T13:46:06.877Z,1.00
2018-12-10T13:48:34.448Z,1.17
2018-12-10T13:51:02.054Z,1.13
2018-12-10T13:53:29.627Z,1.83
2018-12-10T13:55:57.259Z,1.03
2018-12-10T13:58:25.026Z,1.10
2018-12-10T14:00:52.608Z,1.00
2018-12-10T14:03:20.210Z,1.07
2018-12-10T14:05:47.972Z,1.20
2018-12-10T14:08:15.614Z,1.10
2018-12-10T14:10:43.223Z,1.53
2018-12-10T14:13:10.808Z,1.37
2018-12-10T14:15:38.413Z,1.40
2018-12-10T14:18:06.022Z,1.40
2018-12-10T14:20:33.618Z,1.30
2018-12-10T14:23:01.249Z,1.07
2018-12-10T14:25:28.852Z,1.00
2018-12-10T14:27:56.500Z,1.33
2018-12-10T14:30:24.465Z,1.20
2018-12-10T14:32:52.027Z,1.37
2018-12-10T14:35:19.639Z,1.50
2018-12-10T14:37:47.372Z,1.17
2018-12-10T14:40:15.017Z,1.10
2018-12-10T14:42:50.556Z,1.40
2018-12-10T14:45:18.589Z,1.13
2018-12-10T14:47:49.721Z,0.97
2018-12-10T14:50:17.368Z,1.23
2018-12-10T14:52:44.992Z,1.30
2018-12-10T14:55:12.637Z,1.20
2018-12-10T14:57:40.222Z,1.00
2018-12-10T15:00:09.663Z,1.17
2018-12-10T15:02:37.259Z,0.90
2018-12-10T15:05:06.306Z,1.07
2018-12-10T15:07:33.911Z,1.10
2018-12-10T15:10:01.546Z,0.93
2018-12-10T15:12:29.161Z,1.20
2018-12-10T15:14:57.690Z,1.13
2018-12-10T15:17:25.314Z,1.40
2018-12-10T15:19:52.881Z,1.10
2018-12-10T15:22:20.469Z,0.73
2018-12-10T15:24:48.652Z,1.20
2018-12-10T15:27:16.276Z,1.30
2018-12-10T15:29:43.835Z,1.27
2018-12-10T15:32:11.428Z,1.17
2018-12-10T15:34:39.086Z,1.20
2018-12-10T15:37:06.913Z,1.20
2018-12-10T15:39:34.512Z,1.23
2018-12-10T15:42:02.085Z,1.30
2018-12-10T15:44:29.649Z,1.17
2018-12-10T15:46:57.298Z,1.20
2018-12-10T15:49:24.897Z,1.57
2018-12-10T15:51:52.499Z,1.37
2018-12-10T15:54:20.073Z,1.10
2018-12-10T15:56:47.944Z,0.97
2018-12-10T15:59:15.537Z,1.40
2018-12-10T16:01:43.287Z,1.13
2018-12-10T16:04:10.889Z,1.27
2018-12-10T16:06:38.482Z,1.30
2018-12-10T16:09:06.966Z,1.30
2018-12-10T16:11:34.587Z,1.00
2018-12-10T16:14:02.160Z,1.27
2018-12-10T16:16:29.799Z,1.00
2018-12-10T16:18:57.372Z,0.97
2018-12-10T16:21:24.980Z,1.30
2018-12-10T16:23:52.552Z,1.37
2018-12-10T16:26:20.153Z,0.97
2018-12-10T16:28:48.770Z,1.20
2018-12-10T16:31:16.353Z,1.00
2018-12-10T16:33:44.649Z,1.43
2018-12-10T16:36:13.053Z,1.00
2018-12-10T16:38:40.618Z,1.13
2018-12-10T16:41:08.234Z,0.90
2018-12-10T16:43:35.807Z,1.30
2018-12-10T16:46:03.520Z,1.20
2018-12-10T16:48:31.091Z,1.10
2018-12-10T16:50:58.701Z,1.03
2018-12-10T16:53:26.667Z,1.40
2018-12-10T16:55:54.279Z,1.00
2018-12-10T16:58:21.911Z,1.20
2018-12-10T17:00:49.776Z,1.07
2018-12-10T17:03:17.814Z,1.50
2018-12-10T17:05:45.398Z,1.10
2018-12-10T17:08:13.008Z,1.13
2018-12-10T17:10:40.607Z,1.50
2018-12-10T17:13:08.267Z,1.30
2018-12-10T17:15:35.875Z,1.20
2018-12-10T17:18:03.477Z,1.30
2018-12-10T17:20:31.128Z,1.03
2018-12-10T17:22:58.787Z,0.97
2018-12-10T17:25:26.371Z,1.07
2018-12-10T17:27:54.334Z,1.17
2018-12-10T17:30:22.061Z,2.03
2018-12-10T17:32:49.641Z,1.20
2018-12-10T17:35:17.695Z,1.00
2018-12-10T17:37:45.568Z,1.03
2018-12-10T17:40:13.496Z,1.10
2018-12-10T17:42:41.308Z,1.23
2018-12-10T17:45:09.357Z,1.10
2018-12-10T17:47:37.287Z,1.40
2018-12-10T17:50:07.068Z,1.30
2018-12-10T17:52:34.663Z,1.20
2018-12-10T17:55:02.267Z,1.60
2018-12-10T17:57:29.858Z,1.43
2018-12-10T17:59:57.423Z,1.50
2018-12-10T18:02:25.052Z,1.40
2018-12-10T18:04:52.945Z,1.47
2018-12-10T18:07:20.784Z,1.73
2018-12-10T18:09:50.581Z,1.70
2018-12-10T18:12:18.764Z,1.30
2018-12-10T18:14:46.485Z,1.63
2018-12-10T18:17:14.144Z,1.50
2018-12-10T18:19:41.739Z,1.80
2018-12-10T18:22:09.497Z,1.40
2018-12-10T18:24:37.077Z,1.40
2018-12-10T18:27:04.648Z,1.43
2018-12-10T18:29:32.273Z,1.60
2018-12-10T18:31:59.861Z,1.80
2018-12-10T18:34:27.471Z,2.00
2018-12-10T18:36:55.090Z,1.70
2018-12-10T18:39:22.715Z,1.80
2018-12-10T18:41:50.389Z,2.03
2018-12-10T18:44:19.424Z,2.20
2018-12-10T18:46:47.058Z,1.80
2018-12-10T18:49:14.664Z,1.83
2018-12-10T18:51:42.302Z,1.77
2018-12-10T18:54:09.939Z,1.83
2018-12-10T18:56:37.544Z,1.80
2018-12-10T18:59:05.138Z,1.90
2018-12-10T19:01:32.948Z,1.50
2018-12-10T19:04:00.532Z,1.70
2018-12-10T19:06:28.268Z,1.50
2018-12-10T19:08:56.398Z,1.20
2018-12-10T19:11:24.207Z,1.60
2018-12-10T19:13:51.790Z,1.30
2018-12-10T19:16:20.328Z,1.40
2018-12-10T19:18:48.386Z,1.70
2018-12-10T19:21:15.986Z,1.90
2018-12-10T19:23:43.611Z,1.57
2018-12-10T19:26:11.227Z,1.67
2018-12-10T19:28:38.811Z,1.57
2018-12-10T19:31:06.679Z,1.33
2018-12-10T19:33:34.294Z,1.53
2018-12-10T19:36:02.058Z,1.73
2018-12-10T19:38:29.635Z,1.40
2018-12-10T19:40:57.288Z,1.47
2018-12-10T19:43:25.188Z,1.50
2018-12-10T19:45:53.494Z,1.60
2018-12-10T19:48:21.082Z,1.63
2018-12-10T19:50:49.628Z,1.73
2018-12-10T19:53:17.357Z,1.80
2018-12-10T19:55:45.136Z,1.50
2018-12-10T19:58:12.723Z,1.63
2018-12-10T20:00:40.312Z,1.60
2018-12-10T20:03:08.016Z,1.60
2018-12-10T20:05:41.380Z,1.90
2018-12-10T20:08:09.072Z,1.53
2018-12-10T20:10:36.690Z,1.87
2018-12-10T20:13:04.280Z,1.40
2018-12-10T20:15:31.886Z,1.60
2018-12-10T20:17:59.470Z,1.77
2018-12-10T20:20:27.040Z,1.57
2018-12-10T20:22:54.657Z,1.80
2018-12-10T20:25:22.313Z,1.70
2018-12-10T20:27:49.994Z,1.83
2018-12-10T20:30:17.889Z,1.40
2018-12-10T20:32:45.494Z,1.70
2018-12-10T20:35:13.303Z,1.53
2018-12-10T20:37:40.948Z,1.87
2018-12-10T20:40:08.854Z,1.60
2018-12-10T20:42:36.493Z,1.50
2018-12-10T20:45:05.567Z,1.30
2018-12-10T20:47:33.204Z,1.30
2018-12-10T20:50:00.825Z,1.27
2018-12-10T20:52:28.419Z,1.30
2018-12-10T20:54:56.020Z,1.20
2018-12-10T20:57:23.613Z,1.10
2018-12-10T20:59:51.251Z,1.30
2018-12-10T21:02:19.130Z,1.20
2018-12-10T21:04:46.717Z,0.90
2018-12-10T21:07:14.356Z,1.23
2018-12-10T21:09:42.058Z,0.90
2018-12-10T21:12:10.099Z,1.03
2018-12-10T21:14:37.744Z,0.93
2018-12-10T21:17:05.397Z,0.90
2018-12-10T21:19:33.101Z,0.90
2018-12-10T21:22:00.962Z,0.50
2018-12-10T21:24:30.481Z,0.70
2018-12-10T21:26:58.057Z,0.90
2018-12-10T21:29:25.650Z,0.83
2018-12-10T21:31:53.246Z,0.90
2018-12-10T21:34:20.818Z,0.77
2018-12-10T21:36:49.595Z,0.60
2018-12-10T21:39:17.267Z,0.73
2018-12-10T21:41:44.981Z,0.80
2018-12-10T21:44:12.547Z,0.77
2018-12-10T21:46:40.149Z,0.83
2018-12-10T21:49:08.963Z,0.70
2018-12-10T21:51:36.561Z,0.90
2018-12-10T21:54:04.255Z,1.00
2018-12-10T21:56:31.871Z,0.80
2018-12-10T21:58:59.447Z,0.90
2018-12-10T22:01:27.039Z,1.00
2018-12-10T22:03:54.674Z,0.80
2018-12-10T22:06:22.322Z,0.90
2018-12-10T22:08:49.896Z,1.03
2018-12-10T22:11:17.977Z,0.90
2018-12-10T22:13:45.565Z,0.97
2018-12-10T22:16:13.128Z,1.00
2018-12-10T22:18:40.713Z,0.83
2018-12-10T22:21:08.395Z,0.90
2018-12-10T22:23:36.157Z,0.87
2018-12-10T22:26:03.743Z,1.20
2018-12-10T22:28:31.374Z,1.13
2018-12-10T22:30:58.966Z,1.00
2018-12-10T22:33:26.844Z,1.20
2018-12-10T22:35:54.507Z,1.03
2018-12-10T22:38:22.243Z,1.13
2018-12-10T22:40:49.833Z,0.97
2018-12-10T22:43:17.538Z,1.13
2018-12-10T22:45:45.207Z,0.90
2018-12-10T22:48:12.796Z,1.03
2018-12-10T22:50:40.389Z,1.20
2018-12-10T22:53:08.001Z,1.50
2018-12-10T22:55:35.595Z,1.20
2018-12-10T22:58:03.190Z,0.90
2018-12-10T23:00:36.614Z,1.40
2018-12-10T23:03:04.200Z,1.00
2018-12-10T23:05:31.756Z,0.90
2018-12-10T23:07:59.343Z,0.93
2018-12-10T23:10:26.969Z,1.00
2018-12-10T23:12:54.820Z,1.03
2018-12-10T23:15:22.473Z,1.00
2018-12-10T23:17:50.075Z,0.97
2018-12-10T23:20:17.901Z,1.10
2018-12-10T23:22:45.560Z,1.23
2018-12-10T23:25:13.204Z,0.67
2018-12-10T23:27:40.809Z,0.80
2018-12-10T23:30:08.621Z,0.77
2018-12-10T23:32:36.209Z,0.80
2018-12-10T23:35:04.318Z,0.90
2018-12-10T23:37:31.937Z,0.90
2018-12-10T23:39:59.528Z,0.77
2018-12-10T23:42:27.141Z,0.90
2018-12-10T23:44:55.687Z,0.90
2018-12-10T23:47:23.274Z,1.00
2018-12-10T23:49:50.862Z,1.00
2018-12-10T23:52:18.577Z,0.70
2018-12-10T23:54:46.181Z,0.70
2018-12-10T23:57:13.799Z,1.17
2018-12-10T23:59:41.483Z,0.90
